sensor_id;sensor_type;location;lat;lon;timestamp;pressure;altitude;pressure_sealevel;temperature;humidity
76229;BME280;65021;53.174;18.160;2023-02-28T00:01:04;102780.33;;;-3.97;79.29
76229;BME280;65021;53.174;18.160;2023-02-28T00:03:30;102784.45;;;-3.97;79.80
76229;BME280;65021;53.174;18.160;2023-02-28T00:06:03;102781.25;;;-4.00;80.42
76229;BME280;65021;53.174;18.160;2023-02-28T00:08:29;102782.29;;;-4.05;80.00
76229;BME280;65021;53.174;18.160;2023-02-28T00:11:03;102785.05;;;-4.11;80.32
76229;BME280;65021;53.174;18.160;2023-02-28T00:13:31;102779.78;;;-4.16;80.39
76229;BME280;65021;53.174;18.160;2023-02-28T00:15:59;102781.52;;;-4.20;80.57
76229;BME280;65021;53.174;18.160;2023-02-28T00:18:26;102778.27;;;-4.23;80.64
76229;BME280;65021;53.174;18.160;2023-02-28T00:20:53;102780.75;;;-4.25;80.05
76229;BME280;65021;53.174;18.160;2023-02-28T00:23:19;102784.75;;;-4.30;79.97
76229;BME280;65021;53.174;18.160;2023-02-28T00:25:46;102787.05;;;-4.35;79.96
76229;BME280;65021;53.174;18.160;2023-02-28T00:28:12;102783.61;;;-4.40;80.22
76229;BME280;65021;53.174;18.160;2023-02-28T00:30:39;102785.53;;;-4.45;80.05
76229;BME280;65021;53.174;18.160;2023-02-28T00:33:05;102788.00;;;-4.49;79.17
76229;BME280;65021;53.174;18.160;2023-02-28T00:35:32;102786.73;;;-4.52;79.20
76229;BME280;65021;53.174;18.160;2023-02-28T00:37:58;102781.83;;;-4.57;80.08
76229;BME280;65021;53.174;18.160;2023-02-28T00:40:25;102780.95;;;-4.63;79.45
76229;BME280;65021;53.174;18.160;2023-02-28T00:42:52;102784.21;;;-4.66;79.07
76229;BME280;65021;53.174;18.160;2023-02-28T00:45:18;102782.46;;;-4.67;78.83
76229;BME280;65021;53.174;18.160;2023-02-28T00:47:45;102781.79;;;-4.68;79.11
76229;BME280;65021;53.174;18.160;2023-02-28T00:50:12;102785.92;;;-4.68;79.50
76229;BME280;65021;53.174;18.160;2023-02-28T00:52:39;102785.80;;;-4.68;79.71
76229;BME280;65021;53.174;18.160;2023-02-28T00:55:06;102781.88;;;-4.69;79.53
76229;BME280;65021;53.174;18.160;2023-02-28T00:57:32;102782.83;;;-4.70;79.54
76229;BME280;65021;53.174;18.160;2023-02-28T00:59:59;102782.72;;;-4.71;80.19
76229;BME280;65021;53.174;18.160;2023-02-28T01:02:25;102783.01;;;-4.72;80.30
76229;BME280;65021;53.174;18.160;2023-02-28T01:04:52;102785.81;;;-4.74;79.93
76229;BME280;65021;53.174;18.160;2023-02-28T01:07:18;102788.81;;;-4.78;79.69
76229;BME280;65021;53.174;18.160;2023-02-28T01:09:45;102791.20;;;-4.82;79.62
76229;BME280;65021;53.174;18.160;2023-02-28T01:12:11;102790.02;;;-4.86;80.60
76229;BME280;65021;53.174;18.160;2023-02-28T01:14:38;102795.23;;;-4.88;79.94
76229;BME280;65021;53.174;18.160;2023-02-28T01:17:04;102798.27;;;-4.90;79.88
76229;BME280;65021;53.174;18.160;2023-02-28T01:19:31;102800.14;;;-4.94;79.72
76229;BME280;65021;53.174;18.160;2023-02-28T01:22:04;102800.55;;;-4.98;80.42
76229;BME280;65021;53.174;18.160;2023-02-28T01:24:32;102800.55;;;-4.97;80.15
76229;BME280;65021;53.174;18.160;2023-02-28T01:26:59;102799.95;;;-4.97;80.06
76229;BME280;65021;53.174;18.160;2023-02-28T01:29:25;102794.43;;;-5.01;79.71
76229;BME280;65021;53.174;18.160;2023-02-28T01:31:52;102789.50;;;-5.06;79.93
76229;BME280;65021;53.174;18.160;2023-02-28T01:34:18;102788.14;;;-5.07;81.61
76229;BME280;65021;53.174;18.160;2023-02-28T01:36:45;102786.61;;;-5.11;82.00
76229;BME280;65021;53.174;18.160;2023-02-28T01:39:12;102785.64;;;-5.16;82.03
76229;BME280;65021;53.174;18.160;2023-02-28T01:41:39;102785.20;;;-5.20;82.18
76229;BME280;65021;53.174;18.160;2023-02-28T01:46:35;102785.45;;;-5.27;82.25
76229;BME280;65021;53.174;18.160;2023-02-28T01:49:08;102786.98;;;-5.32;81.69
76229;BME280;65021;53.174;18.160;2023-02-28T01:54:09;102782.46;;;-5.35;81.55
76229;BME280;65021;53.174;18.160;2023-02-28T01:56:44;102784.61;;;-5.34;82.32
76229;BME280;65021;53.174;18.160;2023-02-28T01:59:21;102785.80;;;-5.33;82.70
76229;BME280;65021;53.174;18.160;2023-02-28T02:01:50;102783.05;;;-5.33;83.25
76229;BME280;65021;53.174;18.160;2023-02-28T02:04:17;102778.14;;;-5.32;83.65
76229;BME280;65021;53.174;18.160;2023-02-28T02:06:45;102775.80;;;-5.32;84.02
76229;BME280;65021;53.174;18.160;2023-02-28T02:09:13;102776.38;;;-5.33;83.70
76229;BME280;65021;53.174;18.160;2023-02-28T02:11:42;102774.47;;;-5.34;83.47
76229;BME280;65021;53.174;18.160;2023-02-28T02:16:56;102774.87;;;-5.37;82.52
76229;BME280;65021;53.174;18.160;2023-02-28T02:36:23;102794.27;;;-5.53;83.47
76229;BME280;65021;53.174;18.160;2023-02-28T02:39:14;102797.81;;;-5.55;83.03
76229;BME280;65021;53.174;18.160;2023-02-28T02:41:50;102795.70;;;-5.56;83.37
76229;BME280;65021;53.174;18.160;2023-02-28T02:44:27;102795.86;;;-5.55;83.38
76229;BME280;65021;53.174;18.160;2023-02-28T02:46:59;102792.95;;;-5.52;83.23
76229;BME280;65021;53.174;18.160;2023-02-28T02:49:31;102792.33;;;-5.51;83.03
76229;BME280;65021;53.174;18.160;2023-02-28T02:52:03;102795.33;;;-5.50;82.80
76229;BME280;65021;53.174;18.160;2023-02-28T02:54:34;102790.27;;;-5.50;82.84
76229;BME280;65021;53.174;18.160;2023-02-28T02:57:06;102788.49;;;-5.50;83.35
76229;BME280;65021;53.174;18.160;2023-02-28T02:59:37;102793.13;;;-5.49;83.71
76229;BME280;65021;53.174;18.160;2023-02-28T03:02:08;102793.20;;;-5.47;84.14
76229;BME280;65021;53.174;18.160;2023-02-28T03:04:43;102791.07;;;-5.51;83.13
76229;BME280;65021;53.174;18.160;2023-02-28T03:07:12;102788.45;;;-5.55;82.91
76229;BME280;65021;53.174;18.160;2023-02-28T03:09:39;102795.17;;;-5.59;82.99
76229;BME280;65021;53.174;18.160;2023-02-28T03:12:09;102792.73;;;-5.63;83.22
76229;BME280;65021;53.174;18.160;2023-02-28T03:18:00;102789.59;;;-5.68;82.73
76229;BME280;65021;53.174;18.160;2023-02-28T03:20:48;102792.84;;;-5.71;82.95
76229;BME280;65021;53.174;18.160;2023-02-28T03:23:23;102793.20;;;-5.70;82.39
76229;BME280;65021;53.174;18.160;2023-02-28T03:28:40;102800.83;;;-5.71;83.35
76229;BME280;65021;53.174;18.160;2023-02-28T03:34:26;102803.58;;;-5.75;83.42
76229;BME280;65021;53.174;18.160;2023-02-28T03:36:53;102801.20;;;-5.78;83.03
76229;BME280;65021;53.174;18.160;2023-02-28T03:39:43;102802.38;;;-5.82;82.88
76229;BME280;65021;53.174;18.160;2023-02-28T03:42:15;102801.41;;;-5.86;82.70
76229;BME280;65021;53.174;18.160;2023-02-28T03:44:48;102803.58;;;-5.86;82.72
76229;BME280;65021;53.174;18.160;2023-02-28T03:47:36;102811.33;;;-5.84;82.87
76229;BME280;65021;53.174;18.160;2023-02-28T03:50:06;102812.88;;;-5.85;83.12
76229;BME280;65021;53.174;18.160;2023-02-28T03:52:38;102816.10;;;-5.87;83.27
76229;BME280;65021;53.174;18.160;2023-02-28T03:55:10;102818.13;;;-5.91;83.60
76229;BME280;65021;53.174;18.160;2023-02-28T04:01:04;102818.13;;;-5.91;83.40
76229;BME280;65021;53.174;18.160;2023-02-28T04:03:38;102818.27;;;-5.90;83.80
76229;BME280;65021;53.174;18.160;2023-02-28T04:06:14;102814.98;;;-5.90;83.43
76229;BME280;65021;53.174;18.160;2023-02-28T04:08:42;102818.14;;;-5.88;83.03
76229;BME280;65021;53.174;18.160;2023-02-28T04:13:41;102812.74;;;-5.86;82.90
76229;BME280;65021;53.174;18.160;2023-02-28T04:16:09;102817.39;;;-5.85;82.93
76229;BME280;65021;53.174;18.160;2023-02-28T04:18:39;102813.75;;;-5.82;83.35
76229;BME280;65021;53.174;18.160;2023-02-28T04:21:06;102818.92;;;-5.84;84.07
76229;BME280;65021;53.174;18.160;2023-02-28T04:23:33;102816.21;;;-5.87;84.17
76229;BME280;65021;53.174;18.160;2023-02-28T04:25:59;102816.30;;;-5.91;83.84
76229;BME280;65021;53.174;18.160;2023-02-28T04:28:26;102824.80;;;-5.94;83.81
76229;BME280;65021;53.174;18.160;2023-02-28T04:31:04;102820.42;;;-5.97;83.95
76229;BME280;65021;53.174;18.160;2023-02-28T04:33:32;102819.86;;;-5.96;84.32
76229;BME280;65021;53.174;18.160;2023-02-28T04:36:06;102829.17;;;-5.98;84.22
76229;BME280;65021;53.174;18.160;2023-02-28T04:38:36;102832.77;;;-5.98;83.39
76229;BME280;65021;53.174;18.160;2023-02-28T04:41:04;102827.48;;;-5.97;83.72
76229;BME280;65021;53.174;18.160;2023-02-28T04:43:31;102828.83;;;-5.95;83.50
76229;BME280;65021;53.174;18.160;2023-02-28T04:46:01;102827.88;;;-5.97;83.13
76229;BME280;65021;53.174;18.160;2023-02-28T04:48:28;102825.61;;;-5.99;82.98
76229;BME280;65021;53.174;18.160;2023-02-28T04:51:03;102824.54;;;-6.02;83.65
76229;BME280;65021;53.174;18.160;2023-02-28T04:53:31;102827.27;;;-6.06;83.46
76229;BME280;65021;53.174;18.160;2023-02-28T04:55:58;102833.36;;;-6.05;84.36
76229;BME280;65021;53.174;18.160;2023-02-28T04:58:25;102833.02;;;-5.99;84.90
76229;BME280;65021;53.174;18.160;2023-02-28T05:00:52;102832.54;;;-5.94;85.87
76229;BME280;65021;53.174;18.160;2023-02-28T05:03:20;102832.14;;;-5.93;86.22
76229;BME280;65021;53.174;18.160;2023-02-28T05:05:48;102831.27;;;-5.96;85.62
76229;BME280;65021;53.174;18.160;2023-02-28T05:08:15;102835.23;;;-6.00;85.04
76229;BME280;65021;53.174;18.160;2023-02-28T05:10:41;102836.41;;;-6.02;84.38
76229;BME280;65021;53.174;18.160;2023-02-28T05:13:12;102836.27;;;-6.02;84.77
76229;BME280;65021;53.174;18.160;2023-02-28T05:15:39;102837.73;;;-6.03;84.60
76229;BME280;65021;53.174;18.160;2023-02-28T05:18:05;102839.27;;;-6.04;84.96
76229;BME280;65021;53.174;18.160;2023-02-28T05:20:32;102838.19;;;-6.04;85.74
76229;BME280;65021;53.174;18.160;2023-02-28T05:22:59;102841.07;;;-6.04;85.78
76229;BME280;65021;53.174;18.160;2023-02-28T05:25:26;102841.20;;;-6.06;85.13
76229;BME280;65021;53.174;18.160;2023-02-28T05:27:53;102840.15;;;-6.10;84.80
76229;BME280;65021;53.174;18.160;2023-02-28T05:30:19;102841.34;;;-6.12;84.49
76229;BME280;65021;53.174;18.160;2023-02-28T05:32:50;102838.48;;;-6.12;84.57
76229;BME280;65021;53.174;18.160;2023-02-28T05:35:17;102836.74;;;-6.10;84.94
76229;BME280;65021;53.174;18.160;2023-02-28T05:37:44;102836.83;;;-6.08;84.55
76229;BME280;65021;53.174;18.160;2023-02-28T05:40:11;102843.39;;;-6.10;84.04
76229;BME280;65021;53.174;18.160;2023-02-28T05:42:38;102845.31;;;-6.12;84.21
76229;BME280;65021;53.174;18.160;2023-02-28T05:45:05;102838.84;;;-6.12;84.25
76229;BME280;65021;53.174;18.160;2023-02-28T05:47:33;102840.95;;;-6.11;83.96
76229;BME280;65021;53.174;18.160;2023-02-28T05:49:59;102846.26;;;-6.10;83.44
76229;BME280;65021;53.174;18.160;2023-02-28T05:52:27;102843.77;;;-6.07;83.62
76229;BME280;65021;53.174;18.160;2023-02-28T05:54:56;102841.67;;;-6.02;83.74
76229;BME280;65021;53.174;18.160;2023-02-28T05:57:23;102844.41;;;-5.97;83.41
76229;BME280;65021;53.174;18.160;2023-02-28T05:59:49;102844.86;;;-5.91;83.16
76229;BME280;65021;53.174;18.160;2023-02-28T06:02:17;102845.90;;;-5.88;83.03
76229;BME280;65021;53.174;18.160;2023-02-28T06:04:44;102840.77;;;-5.84;82.94
76229;BME280;65021;53.174;18.160;2023-02-28T06:07:11;102848.84;;;-5.80;82.90
76229;BME280;65021;53.174;18.160;2023-02-28T06:09:37;102851.88;;;-5.74;83.29
76229;BME280;65021;53.174;18.160;2023-02-28T06:12:06;102852.15;;;-5.66;83.56
76229;BME280;65021;53.174;18.160;2023-02-28T06:14:34;102849.22;;;-5.57;83.31
76229;BME280;65021;53.174;18.160;2023-02-28T06:17:01;102850.21;;;-5.49;83.27
76229;BME280;65021;53.174;18.160;2023-02-28T06:19:28;102856.98;;;-5.42;83.15
76229;BME280;65021;53.174;18.160;2023-02-28T06:21:56;102859.40;;;-5.34;83.03
76229;BME280;65021;53.174;18.160;2023-02-28T06:24:24;102861.64;;;-5.26;82.76
76229;BME280;65021;53.174;18.160;2023-02-28T06:26:51;102864.21;;;-5.18;82.83
76229;BME280;65021;53.174;18.160;2023-02-28T06:29:17;102863.25;;;-5.09;82.65
76229;BME280;65021;53.174;18.160;2023-02-28T06:31:45;102862.65;;;-4.96;82.64
76229;BME280;65021;53.174;18.160;2023-02-28T06:34:13;102863.77;;;-4.83;82.61
76229;BME280;65021;53.174;18.160;2023-02-28T06:36:42;102862.39;;;-4.70;82.63
76229;BME280;65021;53.174;18.160;2023-02-28T06:39:09;102867.54;;;-4.57;82.33
76229;BME280;65021;53.174;18.160;2023-02-28T06:41:35;102871.48;;;-4.45;82.07
76229;BME280;65021;53.174;18.160;2023-02-28T06:44:05;102868.96;;;-4.31;82.10
76229;BME280;65021;53.174;18.160;2023-02-28T06:46:32;102871.00;;;-4.18;82.00
76229;BME280;65021;53.174;18.160;2023-02-28T06:48:58;102873.98;;;-4.06;81.88
76229;BME280;65021;53.174;18.160;2023-02-28T06:51:25;102874.39;;;-3.93;81.90
76229;BME280;65021;53.174;18.160;2023-02-28T06:53:53;102877.68;;;-3.80;81.82
76229;BME280;65021;53.174;18.160;2023-02-28T06:56:20;102885.51;;;-3.70;81.70
76229;BME280;65021;53.174;18.160;2023-02-28T06:58:48;102883.60;;;-3.61;81.51
76229;BME280;65021;53.174;18.160;2023-02-28T07:01:16;102886.98;;;-3.52;81.37
76229;BME280;65021;53.174;18.160;2023-02-28T07:03:43;102888.51;;;-3.42;81.35
76229;BME280;65021;53.174;18.160;2023-02-28T07:06:09;102888.77;;;-3.31;81.43
76229;BME280;65021;53.174;18.160;2023-02-28T07:08:36;102891.89;;;-3.15;81.41
76229;BME280;65021;53.174;18.160;2023-02-28T07:11:03;102887.61;;;-2.98;81.61
76229;BME280;65021;53.174;18.160;2023-02-28T07:13:30;102882.41;;;-2.84;81.38
76229;BME280;65021;53.174;18.160;2023-02-28T07:16:00;102881.95;;;-2.70;81.31
76229;BME280;65021;53.174;18.160;2023-02-28T07:18:27;102884.90;;;-2.53;81.24
76229;BME280;65021;53.174;18.160;2023-02-28T07:20:54;102879.59;;;-2.38;81.09
76229;BME280;65021;53.174;18.160;2023-02-28T07:23:21;102874.85;;;-2.20;81.04
76229;BME280;65021;53.174;18.160;2023-02-28T07:25:49;102872.95;;;-2.02;80.91
76229;BME280;65021;53.174;18.160;2023-02-28T07:28:16;102870.44;;;-1.83;80.94
76229;BME280;65021;53.174;18.160;2023-02-28T07:30:43;102869.63;;;-1.65;80.85
76229;BME280;65021;53.174;18.160;2023-02-28T07:33:09;102867.94;;;-1.51;80.60
76229;BME280;65021;53.174;18.160;2023-02-28T07:35:36;102873.21;;;-1.34;80.58
76229;BME280;65021;53.174;18.160;2023-02-28T07:38:03;102872.81;;;-1.17;80.45
76229;BME280;65021;53.174;18.160;2023-02-28T07:40:30;102873.30;;;-1.01;80.41
76229;BME280;65021;53.174;18.160;2023-02-28T07:42:59;102873.88;;;-0.85;80.24
76229;BME280;65021;53.174;18.160;2023-02-28T07:45:26;102871.86;;;-0.69;80.37
76229;BME280;65021;53.174;18.160;2023-02-28T07:47:55;102870.88;;;-0.61;79.95
76229;BME280;65021;53.174;18.160;2023-02-28T07:50:22;102873.45;;;-0.55;80.20
76229;BME280;65021;53.174;18.160;2023-02-28T07:52:48;102873.92;;;-0.45;80.24
76229;BME280;65021;53.174;18.160;2023-02-28T07:55:15;102872.53;;;-0.30;80.33
76229;BME280;65021;53.174;18.160;2023-02-28T07:57:43;102863.89;;;-0.19;80.14
76229;BME280;65021;53.174;18.160;2023-02-28T08:00:11;102870.65;;;-0.14;79.30
76229;BME280;65021;53.174;18.160;2023-02-28T08:02:39;102868.73;;;-0.15;78.94
76229;BME280;65021;53.174;18.160;2023-02-28T08:05:06;102869.88;;;-0.14;78.75
76229;BME280;65021;53.174;18.160;2023-02-28T08:07:33;102873.38;;;-0.12;78.85
76229;BME280;65021;53.174;18.160;2023-02-28T08:10:00;102875.73;;;-0.06;79.16
76229;BME280;65021;53.174;18.160;2023-02-28T08:12:26;102874.05;;;0.04;78.84
76229;BME280;65021;53.174;18.160;2023-02-28T08:14:53;102872.41;;;0.13;78.96
76229;BME280;65021;53.174;18.160;2023-02-28T08:17:19;102873.85;;;0.24;78.83
76229;BME280;65021;53.174;18.160;2023-02-28T08:19:46;102872.70;;;0.35;78.80
76229;BME280;65021;53.174;18.160;2023-02-28T08:22:13;102873.31;;;0.45;78.76
76229;BME280;65021;53.174;18.160;2023-02-28T08:24:42;102869.55;;;0.55;78.31
76229;BME280;65021;53.174;18.160;2023-02-28T08:27:09;102870.84;;;0.68;78.42
76229;BME280;65021;53.174;18.160;2023-02-28T08:29:39;102866.67;;;0.76;78.25
76229;BME280;65021;53.174;18.160;2023-02-28T08:32:06;102868.30;;;0.84;78.22
76229;BME280;65021;53.174;18.160;2023-02-28T08:34:33;102862.98;;;0.95;78.04
76229;BME280;65021;53.174;18.160;2023-02-28T08:37:00;102853.20;;;1.02;77.92
76229;BME280;65021;53.174;18.160;2023-02-28T08:39:26;102850.78;;;1.11;77.98
76229;BME280;65021;53.174;18.160;2023-02-28T08:41:53;102844.27;;;1.20;78.07
76229;BME280;65021;53.174;18.160;2023-02-28T08:44:19;102845.73;;;1.33;77.97
76229;BME280;65021;53.174;18.160;2023-02-28T08:46:46;102839.10;;;1.44;77.36
76229;BME280;65021;53.174;18.160;2023-02-28T08:49:12;102834.63;;;1.50;77.15
76229;BME280;65021;53.174;18.160;2023-02-28T08:51:39;102831.37;;;1.56;77.33
76229;BME280;65021;53.174;18.160;2023-02-28T08:54:05;102828.48;;;1.62;77.14
76229;BME280;65021;53.174;18.160;2023-02-28T08:56:32;102832.25;;;1.70;76.69
76229;BME280;65021;53.174;18.160;2023-02-28T08:58:58;102835.70;;;1.75;76.61
76229;BME280;65021;53.174;18.160;2023-02-28T09:01:28;102834.73;;;1.79;76.20
76229;BME280;65021;53.174;18.160;2023-02-28T09:03:55;102839.00;;;1.83;76.19
76229;BME280;65021;53.174;18.160;2023-02-28T09:06:24;102842.13;;;1.86;75.58
76229;BME280;65021;53.174;18.160;2023-02-28T09:08:51;102841.07;;;1.96;75.43
76229;BME280;65021;53.174;18.160;2023-02-28T09:11:19;102844.27;;;2.05;75.71
76229;BME280;65021;53.174;18.160;2023-02-28T09:13:46;102839.75;;;2.14;75.77
76229;BME280;65021;53.174;18.160;2023-02-28T09:16:15;102841.66;;;2.21;75.63
76229;BME280;65021;53.174;18.160;2023-02-28T09:18:43;102835.02;;;2.28;75.10
76229;BME280;65021;53.174;18.160;2023-02-28T09:21:13;102834.93;;;2.30;73.99
76229;BME280;65021;53.174;18.160;2023-02-28T09:23:43;102836.41;;;2.36;74.62
76229;BME280;65021;53.174;18.160;2023-02-28T09:26:18;102833.09;;;2.40;74.12
76229;BME280;65021;53.174;18.160;2023-02-28T09:28:46;102833.23;;;2.48;74.56
76229;BME280;65021;53.174;18.160;2023-02-28T09:31:19;102836.08;;;2.59;73.71
76229;BME280;65021;53.174;18.160;2023-02-28T09:33:50;102838.66;;;2.68;72.72
76229;BME280;65021;53.174;18.160;2023-02-28T09:36:17;102841.81;;;2.72;72.91
76229;BME280;65021;53.174;18.160;2023-02-28T09:38:44;102841.50;;;2.71;72.84
76229;BME280;65021;53.174;18.160;2023-02-28T09:41:19;102841.46;;;2.72;71.93
76229;BME280;65021;53.174;18.160;2023-02-28T09:43:50;102839.79;;;2.78;72.35
76229;BME280;65021;53.174;18.160;2023-02-28T09:49:03;102840.61;;;2.90;72.24
76229;BME280;65021;53.174;18.160;2023-02-28T09:51:52;102842.20;;;2.94;70.68
76229;BME280;65021;53.174;18.160;2023-02-28T09:54:23;102844.29;;;2.97;70.68
76229;BME280;65021;53.174;18.160;2023-02-28T09:57:31;102835.20;;;3.00;70.81
76229;BME280;65021;53.174;18.160;2023-02-28T10:04:51;102835.29;;;3.12;69.70
76229;BME280;65021;53.174;18.160;2023-02-28T10:07:35;102838.05;;;3.16;67.72
76229;BME280;65021;53.174;18.160;2023-02-28T10:10:19;102836.34;;;3.17;65.59
76229;BME280;65021;53.174;18.160;2023-02-28T10:12:47;102837.94;;;3.19;67.64
76229;BME280;65021;53.174;18.160;2023-02-28T10:15:15;102840.63;;;3.21;68.30
76229;BME280;65021;53.174;18.160;2023-02-28T10:17:46;102835.52;;;3.23;68.02
76229;BME280;65021;53.174;18.160;2023-02-28T10:20:19;102829.91;;;3.26;68.08
76229;BME280;65021;53.174;18.160;2023-02-28T10:22:52;102829.33;;;3.30;67.22
76229;BME280;65021;53.174;18.160;2023-02-28T10:25:25;102830.23;;;3.35;66.78
76229;BME280;65021;53.174;18.160;2023-02-28T10:28:10;102826.52;;;3.37;67.52
76229;BME280;65021;53.174;18.160;2023-02-28T10:30:41;102821.05;;;3.40;66.31
76229;BME280;65021;53.174;18.160;2023-02-28T10:33:31;102820.44;;;3.43;66.71
76229;BME280;65021;53.174;18.160;2023-02-28T10:35:58;102814.46;;;3.46;66.13
76229;BME280;65021;53.174;18.160;2023-02-28T10:38:28;102810.17;;;3.50;65.67
76229;BME280;65021;53.174;18.160;2023-02-28T10:43:32;102809.33;;;3.57;66.41
76229;BME280;65021;53.174;18.160;2023-02-28T10:46:09;102816.20;;;3.61;66.76
76229;BME280;65021;53.174;18.160;2023-02-28T10:48:45;102812.25;;;3.59;65.73
76229;BME280;65021;53.174;18.160;2023-02-28T10:51:14;102811.55;;;3.62;65.16
76229;BME280;65021;53.174;18.160;2023-02-28T10:53:48;102810.40;;;3.61;65.81
76229;BME280;65021;53.174;18.160;2023-02-28T10:56:19;102805.59;;;3.61;65.73
76229;BME280;65021;53.174;18.160;2023-02-28T10:59:02;102801.98;;;3.64;64.07
76229;BME280;65021;53.174;18.160;2023-02-28T11:03:56;102800.08;;;3.59;63.86
76229;BME280;65021;53.174;18.160;2023-02-28T11:06:30;102801.25;;;3.59;63.34
76229;BME280;65021;53.174;18.160;2023-02-28T11:09:04;102803.77;;;3.65;63.87
76229;BME280;65021;53.174;18.160;2023-02-28T11:11:43;102799.88;;;3.67;63.49
76229;BME280;65021;53.174;18.160;2023-02-28T11:14:29;102797.94;;;3.62;63.28
76229;BME280;65021;53.174;18.160;2023-02-28T11:17:03;102798.85;;;3.57;61.23
76229;BME280;65021;53.174;18.160;2023-02-28T11:19:46;102788.38;;;3.52;62.12
76229;BME280;65021;53.174;18.160;2023-02-28T11:22:25;102786.58;;;3.57;63.81
76229;BME280;65021;53.174;18.160;2023-02-28T11:25:02;102783.36;;;3.63;63.39
76229;BME280;65021;53.174;18.160;2023-02-28T11:30:00;102778.10;;;3.75;62.66
76229;BME280;65021;53.174;18.160;2023-02-28T11:32:28;102779.31;;;3.82;63.07
76229;BME280;65021;53.174;18.160;2023-02-28T11:35:10;102776.48;;;3.84;62.78
76229;BME280;65021;53.174;18.160;2023-02-28T11:37:40;102774.94;;;3.90;63.05
76229;BME280;65021;53.174;18.160;2023-02-28T11:40:20;102770.48;;;3.98;63.41
76229;BME280;65021;53.174;18.160;2023-02-28T11:43:08;102769.84;;;4.01;63.02
76229;BME280;65021;53.174;18.160;2023-02-28T12:07:18;102745.09;;;4.08;61.40
76229;BME280;65021;53.174;18.160;2023-02-28T12:12:23;102739.77;;;4.20;62.13
76229;BME280;65021;53.174;18.160;2023-02-28T12:26:46;102731.33;;;4.43;60.75
76229;BME280;65021;53.174;18.160;2023-02-28T12:29:17;102736.81;;;4.48;61.09
76229;BME280;65021;53.174;18.160;2023-02-28T12:32:22;102736.08;;;4.50;61.09
76229;BME280;65021;53.174;18.160;2023-02-28T12:34:55;102730.20;;;4.52;60.35
76229;BME280;65021;53.174;18.160;2023-02-28T12:37:45;102726.69;;;4.52;60.93
76229;BME280;65021;53.174;18.160;2023-02-28T12:40:21;102723.42;;;4.52;59.97
76229;BME280;65021;53.174;18.160;2023-02-28T12:43:00;102715.26;;;4.48;60.72
76229;BME280;65021;53.174;18.160;2023-02-28T12:45:40;102716.30;;;4.45;59.35
76229;BME280;65021;53.174;18.160;2023-02-28T12:48:11;102713.27;;;4.45;60.34
76229;BME280;65021;53.174;18.160;2023-02-28T12:50:41;102712.19;;;4.47;60.61
76229;BME280;65021;53.174;18.160;2023-02-28T12:56:23;102701.22;;;4.47;60.19
76229;BME280;65021;53.174;18.160;2023-02-28T12:58:58;102696.20;;;4.45;60.54
76229;BME280;65021;53.174;18.160;2023-02-28T13:07:29;102683.61;;;4.43;59.85
76229;BME280;65021;53.174;18.160;2023-02-28T13:10:00;102683.15;;;4.45;60.29
76229;BME280;65021;53.174;18.160;2023-02-28T13:12:28;102681.98;;;4.48;60.42
76229;BME280;65021;53.174;18.160;2023-02-28T13:17:31;102679.40;;;4.48;59.59
76229;BME280;65021;53.174;18.160;2023-02-28T13:19:59;102675.94;;;4.49;59.01
76229;BME280;65021;53.174;18.160;2023-02-28T13:24:53;102673.85;;;4.57;59.82
76229;BME280;65021;53.174;18.160;2023-02-28T13:29:50;102669.24;;;4.62;58.57
76229;BME280;65021;53.174;18.160;2023-02-28T13:32:32;102664.42;;;4.63;59.22
76229;BME280;65021;53.174;18.160;2023-02-28T13:39:54;102662.62;;;4.75;58.98
76229;BME280;65021;53.174;18.160;2023-02-28T13:42:47;102656.73;;;4.75;58.95
76229;BME280;65021;53.174;18.160;2023-02-28T13:45:24;102657.40;;;4.71;57.87
76229;BME280;65021;53.174;18.160;2023-02-28T13:47:54;102656.29;;;4.71;57.47
76229;BME280;65021;53.174;18.160;2023-02-28T13:56:18;102656.84;;;4.71;51.53
76229;BME280;65021;53.174;18.160;2023-02-28T13:58:59;102647.15;;;4.67;51.64
76229;BME280;65021;53.174;18.160;2023-02-28T14:01:47;102641.11;;;4.66;53.31
76229;BME280;65021;53.174;18.160;2023-02-28T14:07:09;102634.90;;;4.54;51.59
76229;BME280;65021;53.174;18.160;2023-02-28T14:09:46;102630.91;;;4.48;51.49
76229;BME280;65021;53.174;18.160;2023-02-28T14:15:46;102631.79;;;4.42;52.68
76229;BME280;65021;53.174;18.160;2023-02-28T14:18:24;102634.66;;;4.39;53.70
76229;BME280;65021;53.174;18.160;2023-02-28T14:20:56;102636.31;;;4.35;52.44
76229;BME280;65021;53.174;18.160;2023-02-28T14:23:38;102631.68;;;4.33;49.74
76229;BME280;65021;53.174;18.160;2023-02-28T14:31:34;102622.05;;;4.16;48.55
76229;BME280;65021;53.174;18.160;2023-02-28T14:34:05;102620.45;;;4.12;49.24
76229;BME280;65021;53.174;18.160;2023-02-28T14:36:41;102616.77;;;4.11;49.87
76229;BME280;65021;53.174;18.160;2023-02-28T14:39:15;102615.08;;;4.06;51.41
76229;BME280;65021;53.174;18.160;2023-02-28T14:41:45;102616.50;;;3.98;48.20
76229;BME280;65021;53.174;18.160;2023-02-28T14:44:23;102615.73;;;3.96;49.52
76229;BME280;65021;53.174;18.160;2023-02-28T14:46:56;102616.46;;;3.94;49.53
76229;BME280;65021;53.174;18.160;2023-02-28T14:49:32;102616.58;;;3.91;49.09
76229;BME280;65021;53.174;18.160;2023-02-28T14:54:39;102624.18;;;3.82;50.44
76229;BME280;65021;53.174;18.160;2023-02-28T14:57:06;102629.15;;;3.78;51.33
76229;BME280;65021;53.174;18.160;2023-02-28T14:59:46;102632.46;;;3.71;50.51
76229;BME280;65021;53.174;18.160;2023-02-28T15:02:22;102629.20;;;3.69;52.22
76229;BME280;65021;53.174;18.160;2023-02-28T15:04:56;102632.02;;;3.63;52.23
76229;BME280;65021;53.174;18.160;2023-02-28T15:07:23;102633.80;;;3.54;51.78
76229;BME280;65021;53.174;18.160;2023-02-28T15:10:08;102633.85;;;3.50;52.41
76229;BME280;65021;53.174;18.160;2023-02-28T15:12:36;102632.95;;;3.43;53.10
76229;BME280;65021;53.174;18.160;2023-02-28T15:15:06;102629.29;;;3.36;53.50